KOQU

Quonset State Airport

North Kingstown, Rhode Island, USA
METAR KOQU 151750Z 20018G28KT 6SM -RA BR BKN060 OVC080 09/07 A2976
Observed Flight Rules
Feb-15 @ 17:50 UTC (an hour ago) Visual Flight Rules
Wind Visibility Clouds Conditions
200° at 18 knots
 Gusting to 28 knots
6 miles
  • Broken at 6,000' AGL
  • Overcast at 8,000' AGL
  • Light Rain
  • Mist
Temperatures Readings
Current 9°C / 48°F
Dewpoint 7°C / 45°F
Humidity 87%
Altimeter 29.76" Hg
Pressure 1007.82 hPa
Elevation 6
METAR KOQU 151750Z 20018G28KT 6SM -RA BR BKN060 OVC080 09/07 A2976
Observed Flight Rules
Feb-15 @ 17:50 UTC
(an hour ago)
VFR
Wind Visibility
200° at 18 knots
 Gusting to 28 knots
6 miles
Clouds
  • Broken at 6,000' AGL
  • Overcast at 8,000' AGL
Conditions
  • Light Rain
  • Mist
Temperature Dewpoint
9°C / 48°F 7°C / 45°F
Humidity Altimeter Pressure
87% 29.76" Hg 1007.82 hPa